createdAt,value
2019-06-20T00:02:04.709Z,9.00
2019-06-20T00:04:36.047Z,9.00
2019-06-20T00:07:07.370Z,9.67
2019-06-20T00:09:40.473Z,8.00
2019-06-20T00:12:13.075Z,9.00
2019-06-20T00:14:43.277Z,9.00
2019-06-20T00:17:14.854Z,9.00
2019-06-20T00:19:45.333Z,9.67
2019-06-20T00:22:16.035Z,10.67
2019-06-20T00:24:46.321Z,10.00
2019-06-20T00:27:16.362Z,9.33
2019-06-20T00:29:46.349Z,9.00
2019-06-20T00:32:17.334Z,10.33
2019-06-20T00:34:47.460Z,9.33
2019-06-20T00:37:19.248Z,9.00
2019-06-20T00:39:49.711Z,9.00
2019-06-20T00:42:24.826Z,10.00
2019-06-20T00:44:54.910Z,9.33
2019-06-20T00:47:25.108Z,9.67
2019-06-20T00:49:55.461Z,8.67
2019-06-20T00:52:35.078Z,9.33
2019-06-20T00:55:05.968Z,8.67
2019-06-20T00:57:38.207Z,9.67
2019-06-20T01:00:09.317Z,10.00
2019-06-20T01:02:40.855Z,9.00
2019-06-20T01:05:14.439Z,8.33
2019-06-20T01:07:45.377Z,8.00
2019-06-20T01:10:15.294Z,8.67
2019-06-20T01:12:46.229Z,9.33
2019-06-20T01:15:16.246Z,9.33
2019-06-20T01:17:48.484Z,9.00
2019-06-20T01:20:20.218Z,10.33
2019-06-20T01:23:01.674Z,7.67
2019-06-20T01:25:39.599Z,9.00
2019-06-20T01:28:09.643Z,10.00
2019-06-20T01:30:39.683Z,10.00
2019-06-20T01:33:09.707Z,9.67
2019-06-20T01:35:39.971Z,9.00
2019-06-20T01:38:10.383Z,9.33
2019-06-20T01:40:40.507Z,8.00
2019-06-20T01:43:10.564Z,9.67
2019-06-20T01:45:40.752Z,9.67
2019-06-20T01:48:10.823Z,8.67
2019-06-20T01:50:40.807Z,9.67
2019-06-20T01:53:19.247Z,9.67
2019-06-20T01:55:53.023Z,10.00
2019-06-20T01:58:23.079Z,9.00
2019-06-20T02:00:58.922Z,9.00
2019-06-20T02:03:32.902Z,10.00
2019-06-20T02:06:03.575Z,9.33
2019-06-20T02:08:34.407Z,9.33
2019-06-20T02:11:04.418Z,9.33
2019-06-20T02:13:34.366Z,10.00
2019-06-20T02:16:04.653Z,12.00
2019-06-20T02:18:36.557Z,10.33
2019-06-20T02:21:07.059Z,10.33
2019-06-20T02:23:40.010Z,9.00
2019-06-20T02:26:10.431Z,10.00
2019-06-20T02:28:42.393Z,11.00
2019-06-20T02:31:12.489Z,8.00
2019-06-20T02:33:42.532Z,8.67
2019-06-20T02:36:12.666Z,9.67
2019-06-20T02:38:42.890Z,9.00
2019-06-20T02:41:25.884Z,7.67
2019-06-20T02:43:55.859Z,9.67
2019-06-20T02:46:28.719Z,8.67
2019-06-20T02:48:59.247Z,8.00
2019-06-20T02:51:41.252Z,7.00
2019-06-20T02:54:36.962Z,9.00
2019-06-20T02:57:07.066Z,7.67
2019-06-20T02:59:44.189Z,8.00
2019-06-20T03:02:15.150Z,8.33
2019-06-20T03:04:46.330Z,8.00
2019-06-20T03:07:22.753Z,6.33
2019-06-20T03:09:55.060Z,6.00
2019-06-20T03:12:31.805Z,5.00
2019-06-20T03:15:04.809Z,4.00
2019-06-20T03:17:35.710Z,4.00
2019-06-20T03:20:16.473Z,4.80
2019-06-20T03:22:51.245Z,6.00
2019-06-20T03:25:35.370Z,4.33
2019-06-20T03:28:08.312Z,4.33
2019-06-20T03:30:41.959Z,5.33
2019-06-20T03:33:12.877Z,4.00
2019-06-20T03:35:43.875Z,5.33
2019-06-20T03:38:17.198Z,4.40
2019-06-20T03:40:50.439Z,4.00
2019-06-20T03:43:21.506Z,5.33
2019-06-20T03:45:52.556Z,5.33
2019-06-20T03:48:24.048Z,5.33
2019-06-20T03:50:56.763Z,4.17
2019-06-20T03:53:28.379Z,5.40
2019-06-20T03:55:59.678Z,4.00
2019-06-20T03:58:30.679Z,5.33
2019-06-20T04:01:05.674Z,5.33
2019-06-20T04:03:37.165Z,4.00
2019-06-20T04:06:08.304Z,5.33
2019-06-20T04:08:39.669Z,6.00
2019-06-20T04:11:10.680Z,4.33
2019-06-20T04:13:42.072Z,4.33
2019-06-20T04:16:55.736Z,5.40
2019-06-20T04:19:56.479Z,6.33
2019-06-20T04:22:31.091Z,7.00
2019-06-20T04:25:32.808Z,5.33
2019-06-20T04:28:19.710Z,6.00
2019-06-20T04:31:01.271Z,7.67
2019-06-20T04:33:50.706Z,7.00
2019-06-20T04:36:37.712Z,7.33
2019-06-20T04:39:39.033Z,7.67
2019-06-20T04:42:32.821Z,7.00
2019-06-20T04:45:34.144Z,7.67
2019-06-20T04:48:19.016Z,8.00
2019-06-20T04:51:39.901Z,6.67
2019-06-20T04:54:28.270Z,7.00
2019-06-20T04:57:15.367Z,6.25
2019-06-20T05:00:07.078Z,6.00
2019-06-20T05:02:39.007Z,6.00
2019-06-20T05:05:12.651Z,6.40
2019-06-20T05:07:43.927Z,6.67
2019-06-20T05:10:16.451Z,5.25
2019-06-20T05:12:46.473Z,7.00
2019-06-20T05:15:17.710Z,8.00
2019-06-20T05:17:49.997Z,7.67
2019-06-20T05:20:24.676Z,7.00
2019-06-20T05:22:56.297Z,8.67
2019-06-20T05:25:31.134Z,8.33
2019-06-20T05:28:04.037Z,9.00
2019-06-20T05:34:58.508Z,9.00
2019-06-20T05:38:40.334Z,8.00
2019-06-20T05:45:20.449Z,9.00
2019-06-20T05:47:50.924Z,8.33
2019-06-20T05:50:22.481Z,8.00
2019-06-20T05:52:55.308Z,7.00
2019-06-20T05:55:43.132Z,8.33
2019-06-20T05:58:17.187Z,6.33
2019-06-20T06:00:51.839Z,8.00
2019-06-20T06:03:23.361Z,7.67
2019-06-20T06:06:05.421Z,7.00
2019-06-20T06:08:37.018Z,6.00
2019-06-20T06:11:08.925Z,8.00
2019-06-20T06:13:39.312Z,8.67
2019-06-20T06:16:26.118Z,8.00
2019-06-20T06:19:30.299Z,8.00
2019-06-20T06:22:03.290Z,7.33
2019-06-20T06:24:46.464Z,8.00
2019-06-20T06:27:38.668Z,7.33
2019-06-20T06:30:17.032Z,7.00
2019-06-20T06:32:54.842Z,7.33
2019-06-20T06:35:26.504Z,7.00
2019-06-20T06:37:58.005Z,7.00
2019-06-20T06:40:30.521Z,7.00
2019-06-20T06:43:01.513Z,7.33
2019-06-20T06:45:44.755Z,7.00
2019-06-20T06:48:38.778Z,6.00
2019-06-20T06:51:55.988Z,6.00
2019-06-20T06:54:34.703Z,6.00
2019-06-20T06:57:20.302Z,8.00
2019-06-20T07:00:06.305Z,6.33
2019-06-20T07:02:37.338Z,7.00
2019-06-20T07:05:09.963Z,6.00
2019-06-20T07:07:41.767Z,6.00
2019-06-20T07:10:16.281Z,6.33
2019-06-20T07:12:48.235Z,8.00
2019-06-20T07:15:19.292Z,7.00
2019-06-20T07:17:50.287Z,5.67
2019-06-20T07:20:21.600Z,6.00
2019-06-20T07:22:55.376Z,7.00
2019-06-20T07:25:26.999Z,6.00
2019-06-20T07:27:58.885Z,5.40
2019-06-20T07:30:29.836Z,6.67
2019-06-20T07:33:00.993Z,6.00
2019-06-20T07:35:32.336Z,5.33
2019-06-20T07:38:28.126Z,5.00
2019-06-20T07:41:00.977Z,5.00
2019-06-20T07:43:32.049Z,5.00
2019-06-20T07:49:47.505Z,4.00
2019-06-20T07:53:02.079Z,5.33
2019-06-20T07:55:43.429Z,5.00
2019-06-20T07:58:23.301Z,5.00
2019-06-20T08:04:19.094Z,5.00
2019-06-20T08:07:17.743Z,5.00
2019-06-20T08:10:17.438Z,5.00
2019-06-20T08:19:07.830Z,5.67
2019-06-20T08:22:14.121Z,6.00
2019-06-20T08:25:17.533Z,6.33
2019-06-20T08:31:08.908Z,6.00
2019-06-20T08:33:41.297Z,5.33
2019-06-20T08:36:13.511Z,7.00
2019-06-20T08:39:00.171Z,7.67
2019-06-20T08:41:31.974Z,6.00
2019-06-20T08:44:04.474Z,7.25
2019-06-20T08:47:07.208Z,6.00
2019-06-20T08:50:11.820Z,6.00
2019-06-20T08:53:01.639Z,6.00
2019-06-20T08:56:07.155Z,6.33
2019-06-20T08:59:23.964Z,5.00
2019-06-20T09:02:37.642Z,6.00
2019-06-20T09:05:51.776Z,6.00
2019-06-20T09:12:13.733Z,4.80
2019-06-20T09:15:23.102Z,4.00
2019-06-20T09:18:45.078Z,5.00
2019-06-20T09:21:36.983Z,5.00
2019-06-20T09:24:48.491Z,4.00
2019-06-20T09:31:10.229Z,4.40
2019-06-20T09:34:44.067Z,4.40
2019-06-20T09:44:40.033Z,4.80
2019-06-20T09:54:48.484Z,6.00
2019-06-20T09:58:18.955Z,6.00
2019-06-20T10:04:57.190Z,5.67
2019-06-20T10:11:59.275Z,6.00
2019-06-20T10:20:54.843Z,7.00
2019-06-20T10:23:31.353Z,6.33
2019-06-20T10:26:04.282Z,5.67
2019-06-20T10:28:40.400Z,6.25
2019-06-20T10:32:06.082Z,5.67
2019-06-20T10:35:17.990Z,6.00
2019-06-20T10:41:11.200Z,9.67
2019-06-20T10:43:42.994Z,7.33
2019-06-20T10:46:18.670Z,6.25
2019-06-20T10:49:15.529Z,8.33
2019-06-20T10:52:08.715Z,7.00
2019-06-20T10:54:41.673Z,8.00
2019-06-20T10:57:13.292Z,7.00
2019-06-20T10:59:44.379Z,8.00
2019-06-20T11:02:16.487Z,6.33
2019-06-20T11:04:47.775Z,6.33
2019-06-20T11:07:21.460Z,6.33
2019-06-20T11:09:52.638Z,7.67
2019-06-20T11:12:23.751Z,7.33
2019-06-20T11:14:55.836Z,6.75
2019-06-20T11:17:27.331Z,5.67
2019-06-20T11:19:58.372Z,8.00
2019-06-20T11:22:29.414Z,6.33
2019-06-20T11:25:00.269Z,8.00
2019-06-20T11:27:31.555Z,7.33
2019-06-20T11:30:02.549Z,8.00
2019-06-20T11:32:33.389Z,8.33
2019-06-20T11:35:09.563Z,7.75
2019-06-20T11:41:22.926Z,7.00
2019-06-20T11:44:03.035Z,6.33
2019-06-20T11:46:35.300Z,4.33
2019-06-20T11:49:06.887Z,4.33
2019-06-20T11:51:39.839Z,4.60
2019-06-20T11:54:13.770Z,4.67
2019-06-20T11:56:53.132Z,4.67
2019-06-20T11:59:37.454Z,4.67
2019-06-20T12:02:12.368Z,4.33
2019-06-20T12:04:47.166Z,5.00
2019-06-20T12:07:25.531Z,6.00
2019-06-20T12:09:59.643Z,5.67
2019-06-20T12:12:34.112Z,6.00
2019-06-20T12:15:11.578Z,7.67
2019-06-20T12:17:45.224Z,6.50
2019-06-20T12:20:16.687Z,7.67
2019-06-20T12:22:58.191Z,4.67
2019-06-20T12:25:29.980Z,7.00
2019-06-20T12:28:00.893Z,8.33
2019-06-20T12:30:35.297Z,7.67
2019-06-20T12:33:06.275Z,6.00
2019-06-20T12:35:48.590Z,5.00
2019-06-20T12:38:21.645Z,6.00
2019-06-20T12:40:53.531Z,6.00
2019-06-20T12:43:27.249Z,5.00
2019-06-20T12:46:01.822Z,6.00
2019-06-20T12:48:34.656Z,6.00
2019-06-20T12:51:11.812Z,7.00
2019-06-20T12:53:47.235Z,7.75
2019-06-20T12:56:22.201Z,6.00
2019-06-20T12:59:04.226Z,6.00
2019-06-20T13:01:47.345Z,6.00
2019-06-20T13:04:30.112Z,5.67
2019-06-20T13:07:00.590Z,5.00
2019-06-20T13:09:32.109Z,5.67
2019-06-20T13:12:07.926Z,6.00
2019-06-20T13:14:48.008Z,5.00
2019-06-20T13:17:21.159Z,5.33
2019-06-20T13:20:11.685Z,6.50
2019-06-20T13:22:47.158Z,6.00
2019-06-20T13:25:32.660Z,5.20
2019-06-20T13:28:26.818Z,5.25
2019-06-20T13:31:03.218Z,5.00
2019-06-20T13:33:49.023Z,5.50
2019-06-20T13:36:28.396Z,5.75
2019-06-20T13:39:10.620Z,5.33
2019-06-20T13:41:52.826Z,5.33
2019-06-20T13:44:24.344Z,5.40
2019-06-20T13:46:58.473Z,5.00
2019-06-20T13:49:35.809Z,6.00
2019-06-20T13:52:10.268Z,3.33
2019-06-20T13:54:43.030Z,5.00
2019-06-20T13:57:18.550Z,6.00
2019-06-20T13:59:52.640Z,6.00
2019-06-20T14:02:22.506Z,5.40
2019-06-20T14:04:53.869Z,5.00
2019-06-20T14:07:32.121Z,7.00
2019-06-20T14:10:34.504Z,5.00
2019-06-20T14:13:19.772Z,5.00
2019-06-20T14:15:58.261Z,5.33
2019-06-20T14:18:34.098Z,4.00
2019-06-20T14:21:05.849Z,4.80
2019-06-20T14:23:37.885Z,4.80
2019-06-20T14:26:14.573Z,5.00
2019-06-20T14:28:49.086Z,5.67
2019-06-20T14:31:29.366Z,4.67
2019-06-20T14:34:20.588Z,5.67
2019-06-20T14:36:52.277Z,4.00
2019-06-20T14:39:38.987Z,2.40
2019-06-20T14:42:10.665Z,1.80
2019-06-20T14:44:46.419Z,3.00
2019-06-20T14:47:25.663Z,3.00
2019-06-20T14:50:03.374Z,3.00
2019-06-20T14:52:46.628Z,3.00
2019-06-20T14:55:18.115Z,2.67
2019-06-20T14:57:55.118Z,1.80
2019-06-20T15:00:36.249Z,3.00
2019-06-20T15:03:10.771Z,2.80
2019-06-20T15:05:52.636Z,2.40
2019-06-20T15:08:24.435Z,2.00
2019-06-20T15:10:56.225Z,2.20
2019-06-20T15:13:28.194Z,2.40
2019-06-20T15:16:00.118Z,2.00
2019-06-20T15:18:32.091Z,2.80
2019-06-20T15:21:07.379Z,2.20
2019-06-20T15:23:42.779Z,3.00
2019-06-20T15:26:20.088Z,3.00
2019-06-20T15:28:53.417Z,2.00
2019-06-20T15:31:44.143Z,2.20
2019-06-20T15:34:15.921Z,2.40
2019-06-20T15:36:55.659Z,2.40
2019-06-20T15:39:46.705Z,3.00
2019-06-20T15:42:18.293Z,3.00
2019-06-20T15:45:05.921Z,2.20
2019-06-20T15:47:53.417Z,2.80
2019-06-20T15:50:40.247Z,1.40
2019-06-20T15:53:10.164Z,2.40
2019-06-20T15:55:48.912Z,1.00
2019-06-20T15:58:34.556Z,1.60
2019-06-20T16:01:14.048Z,2.00
2019-06-20T16:03:52.547Z,1.00
2019-06-20T16:07:08.414Z,1.20
2019-06-20T16:09:40.172Z,2.00
2019-06-20T16:12:15.305Z,1.40
2019-06-20T16:14:47.073Z,1.60
2019-06-20T16:17:20.864Z,1.00
2019-06-20T16:20:33.306Z,2.00
2019-06-20T16:23:05.074Z,1.60
2019-06-20T16:25:36.814Z,1.00
2019-06-20T16:28:26.111Z,1.80
2019-06-20T16:31:10.046Z,1.20
2019-06-20T16:33:39.230Z,1.60
2019-06-20T16:36:13.043Z,1.40
2019-06-20T16:38:47.255Z,1.80
2019-06-20T16:41:40.203Z,2.00
2019-06-20T16:44:21.082Z,1.80
2019-06-20T16:46:53.553Z,1.80
2019-06-20T16:49:35.648Z,2.00
2019-06-20T16:52:09.297Z,2.40
2019-06-20T16:54:55.077Z,1.60
2019-06-20T16:57:50.889Z,1.00
2019-06-20T17:00:40.760Z,1.60
2019-06-20T17:03:23.174Z,1.80
2019-06-20T17:05:58.339Z,1.20
2019-06-20T17:08:30.226Z,2.00
2019-06-20T17:11:16.852Z,2.00
2019-06-20T17:13:53.449Z,2.00
2019-06-20T17:16:35.286Z,1.60
2019-06-20T17:19:11.614Z,2.00
2019-06-20T17:22:02.426Z,2.00
2019-06-20T17:24:41.749Z,2.00
2019-06-20T17:27:29.253Z,2.00
2019-06-20T17:30:01.543Z,3.00
2019-06-20T17:32:34.095Z,1.20
2019-06-20T17:35:20.533Z,2.00
2019-06-20T17:38:01.047Z,1.60
2019-06-20T17:40:51.202Z,1.80
2019-06-20T17:43:30.852Z,1.00
2019-06-20T17:46:05.038Z,2.40
2019-06-20T17:48:50.243Z,1.00
2019-06-20T17:51:34.015Z,2.00
2019-06-20T17:54:13.141Z,1.00
2019-06-20T17:56:48.028Z,1.00
2019-06-20T17:59:30.334Z,1.60
2019-06-20T18:02:19.238Z,2.40
2019-06-20T18:05:05.989Z,1.00
2019-06-20T18:07:40.942Z,1.00
2019-06-20T18:10:57.237Z,0.40
2019-06-20T18:13:34.560Z,0.40
2019-06-20T18:16:06.547Z,0.40
2019-06-20T18:18:38.545Z,2.00
2019-06-20T18:21:10.375Z,1.60
2019-06-20T18:23:49.630Z,0.60
2019-06-20T18:26:50.611Z,0.60
2019-06-20T18:29:24.875Z,1.40
2019-06-20T18:32:04.649Z,1.20
2019-06-20T18:34:39.309Z,0.40
2019-06-20T18:37:31.654Z,1.60
2019-06-20T18:40:03.181Z,1.00
2019-06-20T18:42:38.085Z,1.40
2019-06-20T18:45:10.164Z,2.00
2019-06-20T18:47:52.032Z,2.00
2019-06-20T18:50:25.605Z,2.00
2019-06-20T18:53:05.939Z,2.00
2019-06-20T18:55:49.480Z,2.00
2019-06-20T18:58:29.050Z,2.00
2019-06-20T19:01:00.974Z,2.00
2019-06-20T19:03:32.795Z,2.00
2019-06-20T19:06:07.487Z,2.00
2019-06-20T19:08:39.384Z,2.60
2019-06-20T19:11:11.269Z,2.60
2019-06-20T19:13:55.471Z,1.20
2019-06-20T19:16:24.526Z,3.00
2019-06-20T19:19:11.248Z,3.00
2019-06-20T19:21:46.521Z,4.00
2019-06-20T19:24:33.332Z,3.80
2019-06-20T19:27:06.874Z,3.00
2019-06-20T19:29:42.465Z,3.00
2019-06-20T19:32:16.280Z,4.60
2019-06-20T19:35:13.150Z,3.80
2019-06-20T19:37:47.199Z,4.00
2019-06-20T19:40:42.754Z,3.80
2019-06-20T19:43:23.141Z,4.00
2019-06-20T19:45:57.941Z,4.00
2019-06-20T19:48:29.656Z,4.00
2019-06-20T19:51:02.715Z,4.00
2019-06-20T19:53:40.375Z,4.33
2019-06-20T19:56:49.207Z,5.00
2019-06-20T19:59:28.893Z,4.00
2019-06-20T20:02:19.537Z,4.00
2019-06-20T20:04:53.277Z,3.00
2019-06-20T20:07:26.954Z,4.00
2019-06-20T20:10:00.773Z,4.33
2019-06-20T20:12:43.677Z,4.80
2019-06-20T20:15:17.883Z,4.00
2019-06-20T20:17:56.717Z,4.00
2019-06-20T20:20:28.474Z,5.00
2019-06-20T20:23:12.191Z,4.00
2019-06-20T20:25:59.709Z,4.40
2019-06-20T20:28:30.668Z,4.00
2019-06-20T20:31:02.001Z,4.33
2019-06-20T20:33:35.323Z,5.00
2019-06-20T20:36:06.111Z,4.00
2019-06-20T20:38:39.209Z,5.00
2019-06-20T20:41:10.013Z,5.00
2019-06-20T20:43:40.893Z,5.00
2019-06-20T20:46:27.166Z,7.00
2019-06-20T20:49:02.787Z,7.00
2019-06-20T20:51:44.399Z,7.00
2019-06-20T20:54:29.702Z,6.67
2019-06-20T20:57:02.061Z,8.00
2019-06-20T20:59:33.986Z,7.00
2019-06-20T21:02:17.228Z,5.50
2019-06-20T21:05:05.604Z,6.75
2019-06-20T21:08:14.067Z,6.00
2019-06-20T21:10:45.340Z,4.00
2019-06-20T21:13:20.472Z,4.67
2019-06-20T21:15:56.477Z,3.67
2019-06-20T21:18:54.336Z,4.40
2019-06-20T21:21:39.680Z,4.00
2019-06-20T21:24:38.389Z,4.00
2019-06-20T21:27:11.863Z,4.40
2019-06-20T21:29:45.413Z,4.40
2019-06-20T21:32:16.376Z,5.00
2019-06-20T21:35:03.562Z,4.00
2019-06-20T21:37:52.456Z,3.67
2019-06-20T21:40:19.973Z,4.00
2019-06-20T21:42:59.694Z,3.00
2019-06-20T21:45:59.656Z,3.33
2019-06-20T21:51:37.093Z,3.20
2019-06-20T21:54:08.886Z,3.00
2019-06-20T21:56:54.917Z,3.40
2019-06-20T21:59:33.455Z,3.33
2019-06-20T22:02:05.721Z,3.80
2019-06-20T22:04:53.771Z,3.20
2019-06-20T22:07:13.834Z,3.40
2019-06-20T22:09:47.024Z,4.00
2019-06-20T22:12:24.131Z,2.60
2019-06-20T22:15:00.886Z,3.00
2019-06-20T22:17:32.572Z,4.00
2019-06-20T22:20:07.830Z,3.80
2019-06-20T22:22:39.682Z,3.60
2019-06-20T22:28:28.227Z,4.00
2019-06-20T22:31:05.573Z,3.00
2019-06-20T22:33:53.444Z,4.33
2019-06-20T22:36:39.497Z,4.00
2019-06-20T22:39:11.776Z,4.00
2019-06-20T22:41:43.294Z,3.00
2019-06-20T22:44:26.702Z,3.20
2019-06-20T22:46:58.926Z,3.67
2019-06-20T22:49:33.506Z,4.00
2019-06-20T22:52:19.693Z,5.25
2019-06-20T22:55:02.978Z,4.00
2019-06-20T22:57:40.564Z,4.00
2019-06-20T23:00:24.238Z,3.75
2019-06-20T23:02:55.307Z,3.67
2019-06-20T23:05:29.422Z,4.00
2019-06-20T23:08:02.899Z,3.67
2019-06-20T23:10:37.975Z,4.60
2019-06-20T23:13:14.977Z,4.67
2019-06-20T23:15:56.523Z,4.40
2019-06-20T23:18:32.512Z,5.00
2019-06-20T23:21:22.786Z,4.00
2019-06-20T23:24:09.597Z,6.00
2019-06-20T23:26:41.326Z,5.20
2019-06-20T23:29:27.106Z,4.00
2019-06-20T23:32:00.358Z,3.00
2019-06-20T23:34:33.999Z,5.33
2019-06-20T23:37:12.853Z,4.00
2019-06-20T23:39:39.598Z,4.00
2019-06-20T23:42:10.348Z,6.00
2019-06-20T23:44:41.258Z,4.67
2019-06-20T23:47:13.311Z,4.00
2019-06-20T23:49:44.616Z,6.00
2019-06-20T23:52:19.222Z,4.00
2019-06-20T23:54:50.183Z,6.00
